sensor_id;sensor_type;location;lat;lon;timestamp;P1;durP1;ratioP1;P2;durP2;ratioP2
19255;SDS011;9762;52.490;13.410;2023-08-06T00:02:13;5.43;;;4.77;;
19255;SDS011;9762;52.490;13.410;2023-08-06T00:04:38;5.10;;;4.63;;
19255;SDS011;9762;52.490;13.410;2023-08-06T00:07:04;4.60;;;4.20;;
19255;SDS011;9762;52.490;13.410;2023-08-06T00:09:30;6.10;;;4.23;;
19255;SDS011;9762;52.490;13.410;2023-08-06T00:11:55;4.50;;;4.10;;
19255;SDS011;9762;52.490;13.410;2023-08-06T00:14:21;3.83;;;3.63;;
19255;SDS011;9762;52.490;13.410;2023-08-06T00:16:47;4.30;;;4.00;;
19255;SDS011;9762;52.490;13.410;2023-08-06T00:19:12;4.53;;;4.23;;
19255;SDS011;9762;52.490;13.410;2023-08-06T00:21:38;5.43;;;5.07;;
19255;SDS011;9762;52.490;13.410;2023-08-06T00:24:04;5.17;;;4.87;;
19255;SDS011;9762;52.490;13.410;2023-08-06T00:26:29;5.90;;;5.50;;
19255;SDS011;9762;52.490;13.410;2023-08-06T00:28:55;5.30;;;5.00;;
19255;SDS011;9762;52.490;13.410;2023-08-06T00:31:20;5.03;;;4.63;;
19255;SDS011;9762;52.490;13.410;2023-08-06T00:33:46;5.83;;;5.43;;
19255;SDS011;9762;52.490;13.410;2023-08-06T00:36:12;5.30;;;4.90;;
19255;SDS011;9762;52.490;13.410;2023-08-06T00:38:37;6.37;;;5.03;;
19255;SDS011;9762;52.490;13.410;2023-08-06T00:41:03;5.57;;;5.27;;
19255;SDS011;9762;52.490;13.410;2023-08-06T00:43:28;4.73;;;4.43;;
19255;SDS011;9762;52.490;13.410;2023-08-06T00:45:54;3.80;;;3.50;;
19255;SDS011;9762;52.490;13.410;2023-08-06T00:48:20;4.30;;;4.00;;
19255;SDS011;9762;52.490;13.410;2023-08-06T00:50:46;4.77;;;4.20;;
19255;SDS011;9762;52.490;13.410;2023-08-06T00:53:12;3.53;;;3.33;;
19255;SDS011;9762;52.490;13.410;2023-08-06T00:55:38;4.27;;;4.00;;
19255;SDS011;9762;52.490;13.410;2023-08-06T00:58:04;4.43;;;4.13;;
19255;SDS011;9762;52.490;13.410;2023-08-06T01:00:30;4.77;;;4.47;;
19255;SDS011;9762;52.490;13.410;2023-08-06T01:02:56;4.23;;;3.93;;
19255;SDS011;9762;52.490;13.410;2023-08-06T01:05:22;3.70;;;3.40;;
19255;SDS011;9762;52.490;13.410;2023-08-06T01:15:52;5.07;;;4.57;;
19255;SDS011;9762;52.490;13.410;2023-08-06T01:18:24;4.47;;;4.17;;
19255;SDS011;9762;52.490;13.410;2023-08-06T01:20:53;3.73;;;3.43;;
19255;SDS011;9762;52.490;13.410;2023-08-06T01:23:18;4.30;;;4.00;;
19255;SDS011;9762;52.490;13.410;2023-08-06T01:31:26;4.37;;;4.17;;
19255;SDS011;9762;52.490;13.410;2023-08-06T01:33:55;4.47;;;4.27;;
19255;SDS011;9762;52.490;13.410;2023-08-06T01:36:23;3.43;;;3.23;;
19255;SDS011;9762;52.490;13.410;2023-08-06T01:38:50;4.37;;;4.00;;
19255;SDS011;9762;52.490;13.410;2023-08-06T01:41:17;4.37;;;3.97;;
19255;SDS011;9762;52.490;13.410;2023-08-06T01:43:43;5.00;;;4.60;;
19255;SDS011;9762;52.490;13.410;2023-08-06T01:46:08;3.47;;;3.20;;
19255;SDS011;9762;52.490;13.410;2023-08-06T01:48:34;4.33;;;4.13;;
19255;SDS011;9762;52.490;13.410;2023-08-06T01:50:59;5.37;;;3.80;;
19255;SDS011;9762;52.490;13.410;2023-08-06T01:53:25;3.93;;;3.57;;
19255;SDS011;9762;52.490;13.410;2023-08-06T01:55:51;3.43;;;3.23;;
19255;SDS011;9762;52.490;13.410;2023-08-06T01:58:16;4.00;;;3.70;;
19255;SDS011;9762;52.490;13.410;2023-08-06T02:00:42;4.43;;;4.13;;
19255;SDS011;9762;52.490;13.410;2023-08-06T02:03:07;4.60;;;4.20;;
19255;SDS011;9762;52.490;13.410;2023-08-06T02:05:33;4.87;;;4.40;;
19255;SDS011;9762;52.490;13.410;2023-08-06T02:07:59;4.10;;;3.90;;
19255;SDS011;9762;52.490;13.410;2023-08-06T02:10:24;4.17;;;3.97;;
19255;SDS011;9762;52.490;13.410;2023-08-06T02:12:50;4.60;;;4.20;;
19255;SDS011;9762;52.490;13.410;2023-08-06T02:15:15;4.60;;;4.30;;
19255;SDS011;9762;52.490;13.410;2023-08-06T02:17:41;4.60;;;4.30;;
19255;SDS011;9762;52.490;13.410;2023-08-06T02:20:07;4.50;;;4.10;;
19255;SDS011;9762;52.490;13.410;2023-08-06T02:22:33;4.40;;;4.03;;
19255;SDS011;9762;52.490;13.410;2023-08-06T02:24:58;4.30;;;4.10;;
19255;SDS011;9762;52.490;13.410;2023-08-06T02:27:24;4.60;;;4.30;;
19255;SDS011;9762;52.490;13.410;2023-08-06T02:29:50;4.97;;;4.67;;
19255;SDS011;9762;52.490;13.410;2023-08-06T02:32:15;3.90;;;3.60;;
19255;SDS011;9762;52.490;13.410;2023-08-06T02:34:41;4.80;;;4.57;;
19255;SDS011;9762;52.490;13.410;2023-08-06T02:37:07;4.00;;;3.70;;
19255;SDS011;9762;52.490;13.410;2023-08-06T02:39:33;5.20;;;4.47;;
19255;SDS011;9762;52.490;13.410;2023-08-06T02:41:59;5.17;;;4.87;;
19255;SDS011;9762;52.490;13.410;2023-08-06T02:44:27;4.40;;;4.10;;
19255;SDS011;9762;52.490;13.410;2023-08-06T02:46:53;4.43;;;4.23;;
19255;SDS011;9762;52.490;13.410;2023-08-06T02:49:19;4.30;;;4.10;;
19255;SDS011;9762;52.490;13.410;2023-08-06T02:51:45;4.03;;;3.83;;
19255;SDS011;9762;52.490;13.410;2023-08-06T02:54:10;4.80;;;4.50;;
19255;SDS011;9762;52.490;13.410;2023-08-06T02:56:36;5.20;;;5.00;;
19255;SDS011;9762;52.490;13.410;2023-08-06T02:59:01;4.57;;;4.27;;
19255;SDS011;9762;52.490;13.410;2023-08-06T03:01:27;4.60;;;4.30;;
19255;SDS011;9762;52.490;13.410;2023-08-06T03:03:53;4.23;;;4.03;;
19255;SDS011;9762;52.490;13.410;2023-08-06T03:06:19;4.33;;;4.13;;
19255;SDS011;9762;52.490;13.410;2023-08-06T03:08:44;4.20;;;4.00;;
19255;SDS011;9762;52.490;13.410;2023-08-06T03:11:10;4.47;;;4.17;;
19255;SDS011;9762;52.490;13.410;2023-08-06T03:13:35;4.77;;;4.37;;
19255;SDS011;9762;52.490;13.410;2023-08-06T03:16:01;3.63;;;3.43;;
19255;SDS011;9762;52.490;13.410;2023-08-06T03:18:27;4.00;;;3.63;;
19255;SDS011;9762;52.490;13.410;2023-08-06T03:20:52;3.93;;;3.73;;
19255;SDS011;9762;52.490;13.410;2023-08-06T03:23:18;3.73;;;3.53;;
19255;SDS011;9762;52.490;13.410;2023-08-06T03:25:44;3.97;;;3.77;;
19255;SDS011;9762;52.490;13.410;2023-08-06T03:28:10;4.40;;;3.80;;
19255;SDS011;9762;52.490;13.410;2023-08-06T03:30:36;3.57;;;3.37;;
19255;SDS011;9762;52.490;13.410;2023-08-06T03:33:01;3.80;;;3.10;;
19255;SDS011;9762;52.490;13.410;2023-08-06T03:35:27;3.57;;;3.30;;
19255;SDS011;9762;52.490;13.410;2023-08-06T03:37:53;3.37;;;3.23;;
19255;SDS011;9762;52.490;13.410;2023-08-06T03:40:18;3.10;;;2.90;;
19255;SDS011;9762;52.490;13.410;2023-08-06T03:42:44;3.23;;;3.13;;
19255;SDS011;9762;52.490;13.410;2023-08-06T03:45:09;3.23;;;3.03;;
19255;SDS011;9762;52.490;13.410;2023-08-06T03:47:35;3.10;;;2.90;;
19255;SDS011;9762;52.490;13.410;2023-08-06T03:50:01;4.00;;;3.70;;
19255;SDS011;9762;52.490;13.410;2023-08-06T03:52:26;2.73;;;2.53;;
19255;SDS011;9762;52.490;13.410;2023-08-06T03:54:52;3.57;;;3.27;;
19255;SDS011;9762;52.490;13.410;2023-08-06T03:57:18;3.33;;;3.13;;
19255;SDS011;9762;52.490;13.410;2023-08-06T03:59:43;3.50;;;3.30;;
19255;SDS011;9762;52.490;13.410;2023-08-06T04:02:09;3.90;;;3.60;;
19255;SDS011;9762;52.490;13.410;2023-08-06T04:04:34;4.10;;;3.37;;
19255;SDS011;9762;52.490;13.410;2023-08-06T04:07:00;3.07;;;2.87;;
19255;SDS011;9762;52.490;13.410;2023-08-06T04:09:28;3.10;;;2.90;;
19255;SDS011;9762;52.490;13.410;2023-08-06T04:11:53;4.07;;;3.90;;
19255;SDS011;9762;52.490;13.410;2023-08-06T04:14:19;3.53;;;3.33;;
19255;SDS011;9762;52.490;13.410;2023-08-06T04:16:45;3.47;;;3.20;;
19255;SDS011;9762;52.490;13.410;2023-08-06T04:19:10;3.20;;;3.00;;
19255;SDS011;9762;52.490;13.410;2023-08-06T04:21:36;3.40;;;3.27;;
19255;SDS011;9762;52.490;13.410;2023-08-06T04:24:01;3.30;;;3.00;;
19255;SDS011;9762;52.490;13.410;2023-08-06T04:26:27;3.60;;;3.40;;
19255;SDS011;9762;52.490;13.410;2023-08-06T04:28:53;3.20;;;3.00;;
19255;SDS011;9762;52.490;13.410;2023-08-06T04:31:18;3.40;;;3.30;;
19255;SDS011;9762;52.490;13.410;2023-08-06T04:33:44;3.63;;;3.43;;
19255;SDS011;9762;52.490;13.410;2023-08-06T04:36:11;4.43;;;3.73;;
19255;SDS011;9762;52.490;13.410;2023-08-06T04:38:37;3.83;;;3.73;;
19255;SDS011;9762;52.490;13.410;2023-08-06T04:41:03;3.03;;;2.93;;
19255;SDS011;9762;52.490;13.410;2023-08-06T04:43:29;4.80;;;4.50;;
19255;SDS011;9762;52.490;13.410;2023-08-06T04:45:55;3.93;;;3.73;;
19255;SDS011;9762;52.490;13.410;2023-08-06T04:48:21;4.50;;;4.10;;
19255;SDS011;9762;52.490;13.410;2023-08-06T04:50:48;4.10;;;3.90;;
19255;SDS011;9762;52.490;13.410;2023-08-06T04:53:15;4.20;;;4.00;;
19255;SDS011;9762;52.490;13.410;2023-08-06T04:55:41;4.43;;;4.13;;
19255;SDS011;9762;52.490;13.410;2023-08-06T04:58:09;4.40;;;4.20;;
19255;SDS011;9762;52.490;13.410;2023-08-06T05:00:35;4.83;;;3.80;;
19255;SDS011;9762;52.490;13.410;2023-08-06T05:03:01;4.30;;;4.10;;
19255;SDS011;9762;52.490;13.410;2023-08-06T05:05:27;3.13;;;3.03;;
19255;SDS011;9762;52.490;13.410;2023-08-06T05:07:53;3.03;;;2.93;;
19255;SDS011;9762;52.490;13.410;2023-08-06T05:10:21;3.00;;;2.90;;
19255;SDS011;9762;52.490;13.410;2023-08-06T05:12:49;3.63;;;3.43;;
19255;SDS011;9762;52.490;13.410;2023-08-06T05:15:14;3.70;;;3.40;;
19255;SDS011;9762;52.490;13.410;2023-08-06T05:17:40;2.90;;;2.80;;
19255;SDS011;9762;52.490;13.410;2023-08-06T05:20:06;2.97;;;2.83;;
19255;SDS011;9762;52.490;13.410;2023-08-06T05:22:32;3.07;;;2.87;;
19255;SDS011;9762;52.490;13.410;2023-08-06T05:24:57;2.93;;;2.83;;
19255;SDS011;9762;52.490;13.410;2023-08-06T05:27:23;3.13;;;2.93;;
19255;SDS011;9762;52.490;13.410;2023-08-06T05:29:48;2.67;;;2.57;;
19255;SDS011;9762;52.490;13.410;2023-08-06T05:32:14;2.70;;;2.50;;
19255;SDS011;9762;52.490;13.410;2023-08-06T05:34:39;2.67;;;2.57;;
19255;SDS011;9762;52.490;13.410;2023-08-06T05:37:06;3.50;;;3.20;;
19255;SDS011;9762;52.490;13.410;2023-08-06T05:39:32;2.70;;;2.60;;
19255;SDS011;9762;52.490;13.410;2023-08-06T05:41:57;2.83;;;2.70;;
19255;SDS011;9762;52.490;13.410;2023-08-06T05:44:23;3.40;;;3.20;;
19255;SDS011;9762;52.490;13.410;2023-08-06T05:46:49;3.53;;;3.33;;
19255;SDS011;9762;52.490;13.410;2023-08-06T05:49:15;3.20;;;3.10;;
19255;SDS011;9762;52.490;13.410;2023-08-06T05:51:41;3.57;;;3.30;;
19255;SDS011;9762;52.490;13.410;2023-08-06T05:54:07;2.83;;;2.73;;
19255;SDS011;9762;52.490;13.410;2023-08-06T05:56:33;3.20;;;3.10;;
19255;SDS011;9762;52.490;13.410;2023-08-06T05:58:58;3.13;;;3.03;;
19255;SDS011;9762;52.490;13.410;2023-08-06T06:01:24;3.27;;;3.17;;
19255;SDS011;9762;52.490;13.410;2023-08-06T06:03:49;3.23;;;3.03;;
19255;SDS011;9762;52.490;13.410;2023-08-06T06:06:15;2.60;;;2.40;;
19255;SDS011;9762;52.490;13.410;2023-08-06T06:08:42;3.20;;;3.10;;
19255;SDS011;9762;52.490;13.410;2023-08-06T06:11:09;2.80;;;2.70;;
19255;SDS011;9762;52.490;13.410;2023-08-06T06:13:34;2.50;;;2.50;;
19255;SDS011;9762;52.490;13.410;2023-08-06T06:16:00;2.50;;;2.50;;
19255;SDS011;9762;52.490;13.410;2023-08-06T06:18:25;3.40;;;3.10;;
19255;SDS011;9762;52.490;13.410;2023-08-06T06:20:51;2.27;;;2.17;;
19255;SDS011;9762;52.490;13.410;2023-08-06T06:23:17;2.77;;;2.67;;
19255;SDS011;9762;52.490;13.410;2023-08-06T06:25:43;2.70;;;2.53;;
19255;SDS011;9762;52.490;13.410;2023-08-06T06:28:11;2.77;;;2.67;;
19255;SDS011;9762;52.490;13.410;2023-08-06T06:30:37;3.07;;;2.97;;
19255;SDS011;9762;52.490;13.410;2023-08-06T06:33:02;3.13;;;2.97;;
19255;SDS011;9762;52.490;13.410;2023-08-06T06:35:28;3.07;;;2.87;;
19255;SDS011;9762;52.490;13.410;2023-08-06T06:37:54;3.90;;;2.57;;
19255;SDS011;9762;52.490;13.410;2023-08-06T06:40:19;3.40;;;3.20;;
19255;SDS011;9762;52.490;13.410;2023-08-06T06:42:45;2.63;;;2.53;;
19255;SDS011;9762;52.490;13.410;2023-08-06T06:45:10;4.80;;;4.40;;
19255;SDS011;9762;52.490;13.410;2023-08-06T06:47:36;4.20;;;3.80;;
19255;SDS011;9762;52.490;13.410;2023-08-06T06:50:01;3.50;;;3.30;;
19255;SDS011;9762;52.490;13.410;2023-08-06T06:52:27;4.47;;;4.07;;
19255;SDS011;9762;52.490;13.410;2023-08-06T06:54:53;3.07;;;2.90;;
19255;SDS011;9762;52.490;13.410;2023-08-06T06:57:18;3.80;;;3.60;;
19255;SDS011;9762;52.490;13.410;2023-08-06T06:59:44;4.20;;;4.00;;
19255;SDS011;9762;52.490;13.410;2023-08-06T07:02:09;4.10;;;3.90;;
19255;SDS011;9762;52.490;13.410;2023-08-06T07:04:35;3.37;;;3.20;;
19255;SDS011;9762;52.490;13.410;2023-08-06T07:07:01;4.23;;;3.83;;
19255;SDS011;9762;52.490;13.410;2023-08-06T07:09:26;4.73;;;4.43;;
19255;SDS011;9762;52.490;13.410;2023-08-06T07:11:52;4.00;;;3.77;;
19255;SDS011;9762;52.490;13.410;2023-08-06T07:14:17;3.93;;;3.77;;
19255;SDS011;9762;52.490;13.410;2023-08-06T07:16:43;3.83;;;3.63;;
19255;SDS011;9762;52.490;13.410;2023-08-06T07:19:08;3.87;;;3.70;;
19255;SDS011;9762;52.490;13.410;2023-08-06T07:21:34;3.83;;;3.53;;
19255;SDS011;9762;52.490;13.410;2023-08-06T07:24:00;3.93;;;3.70;;
19255;SDS011;9762;52.490;13.410;2023-08-06T07:26:25;3.97;;;3.87;;
19255;SDS011;9762;52.490;13.410;2023-08-06T07:28:51;4.50;;;4.10;;
19255;SDS011;9762;52.490;13.410;2023-08-06T07:31:17;4.67;;;4.47;;
19255;SDS011;9762;52.490;13.410;2023-08-06T07:33:42;3.93;;;3.73;;
19255;SDS011;9762;52.490;13.410;2023-08-06T07:36:09;4.23;;;3.93;;
19255;SDS011;9762;52.490;13.410;2023-08-06T07:38:39;3.53;;;3.30;;
19255;SDS011;9762;52.490;13.410;2023-08-06T07:41:04;3.63;;;3.47;;
19255;SDS011;9762;52.490;13.410;2023-08-06T07:43:30;4.03;;;3.80;;
19255;SDS011;9762;52.490;13.410;2023-08-06T07:45:59;3.30;;;3.10;;
19255;SDS011;9762;52.490;13.410;2023-08-06T07:48:26;3.37;;;3.27;;
19255;SDS011;9762;52.490;13.410;2023-08-06T07:50:52;3.70;;;3.60;;
19255;SDS011;9762;52.490;13.410;2023-08-06T07:53:21;3.17;;;3.07;;
19255;SDS011;9762;52.490;13.410;2023-08-06T07:55:51;3.30;;;3.10;;
19255;SDS011;9762;52.490;13.410;2023-08-06T07:58:17;3.07;;;2.90;;
19255;SDS011;9762;52.490;13.410;2023-08-06T08:00:43;2.80;;;2.70;;
19255;SDS011;9762;52.490;13.410;2023-08-06T08:03:11;2.87;;;2.77;;
19255;SDS011;9762;52.490;13.410;2023-08-06T08:05:38;5.67;;;3.40;;
19255;SDS011;9762;52.490;13.410;2023-08-06T08:08:04;3.57;;;3.37;;
19255;SDS011;9762;52.490;13.410;2023-08-06T08:10:30;2.90;;;2.80;;
19255;SDS011;9762;52.490;13.410;2023-08-06T08:12:56;2.90;;;2.70;;
19255;SDS011;9762;52.490;13.410;2023-08-06T08:15:22;3.50;;;3.20;;
19255;SDS011;9762;52.490;13.410;2023-08-06T08:17:47;4.33;;;3.97;;
19255;SDS011;9762;52.490;13.410;2023-08-06T08:20:13;3.70;;;3.43;;
19255;SDS011;9762;52.490;13.410;2023-08-06T08:22:40;3.10;;;3.00;;
19255;SDS011;9762;52.490;13.410;2023-08-06T08:25:05;4.33;;;4.13;;
19255;SDS011;9762;52.490;13.410;2023-08-06T08:27:31;4.60;;;4.17;;
19255;SDS011;9762;52.490;13.410;2023-08-06T08:29:57;3.40;;;3.23;;
19255;SDS011;9762;52.490;13.410;2023-08-06T08:32:22;3.77;;;3.60;;
19255;SDS011;9762;52.490;13.410;2023-08-06T08:34:49;3.83;;;3.57;;
19255;SDS011;9762;52.490;13.410;2023-08-06T08:37:15;4.93;;;4.63;;
19255;SDS011;9762;52.490;13.410;2023-08-06T08:39:40;4.30;;;4.10;;
19255;SDS011;9762;52.490;13.410;2023-08-06T08:42:06;4.20;;;4.00;;
19255;SDS011;9762;52.490;13.410;2023-08-06T08:44:32;4.23;;;4.03;;
19255;SDS011;9762;52.490;13.410;2023-08-06T08:46:59;5.07;;;4.77;;
19255;SDS011;9762;52.490;13.410;2023-08-06T08:49:26;4.90;;;4.50;;
19255;SDS011;9762;52.490;13.410;2023-08-06T08:51:53;3.97;;;3.77;;
19255;SDS011;9762;52.490;13.410;2023-08-06T08:54:21;6.83;;;5.70;;
19255;SDS011;9762;52.490;13.410;2023-08-06T08:56:49;6.23;;;5.83;;
19255;SDS011;9762;52.490;13.410;2023-08-06T08:59:14;4.83;;;4.63;;
19255;SDS011;9762;52.490;13.410;2023-08-06T09:01:40;5.70;;;5.30;;
19255;SDS011;9762;52.490;13.410;2023-08-06T09:04:07;7.07;;;6.67;;
19255;SDS011;9762;52.490;13.410;2023-08-06T09:06:37;7.60;;;7.17;;
19255;SDS011;9762;52.490;13.410;2023-08-06T09:09:15;7.57;;;6.87;;
19255;SDS011;9762;52.490;13.410;2023-08-06T09:11:46;7.87;;;6.77;;
19255;SDS011;9762;52.490;13.410;2023-08-06T09:14:14;7.50;;;7.00;;
19255;SDS011;9762;52.490;13.410;2023-08-06T09:16:40;7.17;;;6.77;;
19255;SDS011;9762;52.490;13.410;2023-08-06T09:19:09;7.90;;;7.23;;
19255;SDS011;9762;52.490;13.410;2023-08-06T09:21:37;7.77;;;7.30;;
19255;SDS011;9762;52.490;13.410;2023-08-06T09:24:07;7.87;;;7.37;;
19255;SDS011;9762;52.490;13.410;2023-08-06T09:26:33;5.67;;;5.37;;
19255;SDS011;9762;52.490;13.410;2023-08-06T09:28:59;6.07;;;5.77;;
19255;SDS011;9762;52.490;13.410;2023-08-06T09:31:32;6.07;;;5.77;;
19255;SDS011;9762;52.490;13.410;2023-08-06T09:33:59;5.60;;;5.27;;
19255;SDS011;9762;52.490;13.410;2023-08-06T09:36:26;4.27;;;4.07;;
19255;SDS011;9762;52.490;13.410;2023-08-06T09:38:52;6.07;;;4.50;;
19255;SDS011;9762;52.490;13.410;2023-08-06T09:41:27;5.67;;;5.33;;
19255;SDS011;9762;52.490;13.410;2023-08-06T09:43:56;5.80;;;5.50;;
19255;SDS011;9762;52.490;13.410;2023-08-06T09:46:21;5.50;;;5.20;;
19255;SDS011;9762;52.490;13.410;2023-08-06T09:48:47;5.97;;;5.47;;
19255;SDS011;9762;52.490;13.410;2023-08-06T09:51:13;5.67;;;5.27;;
19255;SDS011;9762;52.490;13.410;2023-08-06T09:53:40;6.10;;;5.80;;
19255;SDS011;9762;52.490;13.410;2023-08-06T09:56:06;4.83;;;4.63;;
19255;SDS011;9762;52.490;13.410;2023-08-06T09:58:31;4.57;;;4.37;;
19255;SDS011;9762;52.490;13.410;2023-08-06T10:00:58;6.10;;;5.67;;
19255;SDS011;9762;52.490;13.410;2023-08-06T10:03:26;6.27;;;5.87;;
19255;SDS011;9762;52.490;13.410;2023-08-06T10:05:55;6.47;;;6.10;;
19255;SDS011;9762;52.490;13.410;2023-08-06T10:08:21;7.13;;;6.73;;
19255;SDS011;9762;52.490;13.410;2023-08-06T10:10:47;6.13;;;5.83;;
19255;SDS011;9762;52.490;13.410;2023-08-06T10:13:12;6.30;;;5.77;;
19255;SDS011;9762;52.490;13.410;2023-08-06T10:15:38;5.53;;;5.23;;
19255;SDS011;9762;52.490;13.410;2023-08-06T10:18:04;5.20;;;4.80;;
19255;SDS011;9762;52.490;13.410;2023-08-06T10:20:35;6.47;;;6.07;;
19255;SDS011;9762;52.490;13.410;2023-08-06T10:23:01;6.40;;;5.97;;
19255;SDS011;9762;52.490;13.410;2023-08-06T10:25:30;5.67;;;5.30;;
19255;SDS011;9762;52.490;13.410;2023-08-06T10:27:57;4.93;;;4.53;;
19255;SDS011;9762;52.490;13.410;2023-08-06T10:32:57;6.10;;;5.60;;
19255;SDS011;9762;52.490;13.410;2023-08-06T10:38:11;7.13;;;6.57;;
19255;SDS011;9762;52.490;13.410;2023-08-06T10:40:41;6.10;;;5.70;;
19255;SDS011;9762;52.490;13.410;2023-08-06T10:43:36;5.33;;;5.03;;
19255;SDS011;9762;52.490;13.410;2023-08-06T10:46:11;5.67;;;5.37;;
19255;SDS011;9762;52.490;13.410;2023-08-06T10:48:46;5.77;;;5.47;;
19255;SDS011;9762;52.490;13.410;2023-08-06T10:51:13;6.80;;;6.30;;
19255;SDS011;9762;52.490;13.410;2023-08-06T10:53:46;6.00;;;5.60;;
19255;SDS011;9762;52.490;13.410;2023-08-06T10:56:19;5.47;;;5.17;;
19255;SDS011;9762;52.490;13.410;2023-08-06T10:58:49;6.63;;;6.13;;
19255;SDS011;9762;52.490;13.410;2023-08-06T11:01:15;6.40;;;6.10;;
19255;SDS011;9762;52.490;13.410;2023-08-06T11:03:42;6.20;;;5.80;;
19255;SDS011;9762;52.490;13.410;2023-08-06T11:06:08;6.40;;;6.00;;
19255;SDS011;9762;52.490;13.410;2023-08-06T11:08:36;6.50;;;6.00;;
19255;SDS011;9762;52.490;13.410;2023-08-06T11:11:12;6.47;;;6.07;;
19255;SDS011;9762;52.490;13.410;2023-08-06T11:13:42;5.00;;;4.80;;
19255;SDS011;9762;52.490;13.410;2023-08-06T11:16:12;6.43;;;6.03;;
19255;SDS011;9762;52.490;13.410;2023-08-06T11:18:39;5.07;;;4.83;;
19255;SDS011;9762;52.490;13.410;2023-08-06T11:21:07;4.87;;;4.67;;
19255;SDS011;9762;52.490;13.410;2023-08-06T11:23:32;5.80;;;5.50;;
19255;SDS011;9762;52.490;13.410;2023-08-06T11:25:59;5.33;;;5.03;;
19255;SDS011;9762;52.490;13.410;2023-08-06T11:28:25;5.23;;;4.93;;
19255;SDS011;9762;52.490;13.410;2023-08-06T11:30:52;4.87;;;4.57;;
19255;SDS011;9762;52.490;13.410;2023-08-06T11:33:21;6.07;;;5.03;;
19255;SDS011;9762;52.490;13.410;2023-08-06T11:35:51;4.93;;;4.63;;
19255;SDS011;9762;52.490;13.410;2023-08-06T11:38:17;7.27;;;6.60;;
19255;SDS011;9762;52.490;13.410;2023-08-06T11:40:44;6.27;;;5.77;;
19255;SDS011;9762;52.490;13.410;2023-08-06T11:43:10;7.13;;;6.63;;
19255;SDS011;9762;52.490;13.410;2023-08-06T11:45:40;5.00;;;4.70;;
19255;SDS011;9762;52.490;13.410;2023-08-06T11:48:06;5.30;;;5.00;;
19255;SDS011;9762;52.490;13.410;2023-08-06T11:50:36;4.93;;;4.67;;
19255;SDS011;9762;52.490;13.410;2023-08-06T11:53:03;4.50;;;4.20;;
19255;SDS011;9762;52.490;13.410;2023-08-06T11:55:29;9.17;;;7.93;;
19255;SDS011;9762;52.490;13.410;2023-08-06T11:57:56;6.40;;;5.97;;
19255;SDS011;9762;52.490;13.410;2023-08-06T12:00:25;5.13;;;4.80;;
19255;SDS011;9762;52.490;13.410;2023-08-06T12:02:51;5.37;;;4.97;;
19255;SDS011;9762;52.490;13.410;2023-08-06T12:05:19;7.20;;;6.70;;
19255;SDS011;9762;52.490;13.410;2023-08-06T12:07:52;6.03;;;5.73;;
19255;SDS011;9762;52.490;13.410;2023-08-06T12:10:22;5.93;;;5.53;;
19255;SDS011;9762;52.490;13.410;2023-08-06T12:12:49;9.67;;;6.27;;
19255;SDS011;9762;52.490;13.410;2023-08-06T12:15:15;8.83;;;8.33;;
19255;SDS011;9762;52.490;13.410;2023-08-06T12:17:41;6.90;;;6.57;;
19255;SDS011;9762;52.490;13.410;2023-08-06T12:20:07;4.77;;;4.47;;
19255;SDS011;9762;52.490;13.410;2023-08-06T12:22:34;6.93;;;6.57;;
19255;SDS011;9762;52.490;13.410;2023-08-06T12:25:03;6.07;;;5.60;;
19255;SDS011;9762;52.490;13.410;2023-08-06T12:27:37;6.73;;;6.33;;
19255;SDS011;9762;52.490;13.410;2023-08-06T12:30:03;7.13;;;6.63;;
19255;SDS011;9762;52.490;13.410;2023-08-06T12:32:30;6.93;;;6.53;;
19255;SDS011;9762;52.490;13.410;2023-08-06T12:34:56;7.70;;;7.10;;
19255;SDS011;9762;52.490;13.410;2023-08-06T12:37:21;30.33;;;11.97;;
19255;SDS011;9762;52.490;13.410;2023-08-06T12:39:48;13.70;;;9.47;;
19255;SDS011;9762;52.490;13.410;2023-08-06T12:42:13;12.83;;;9.63;;
19255;SDS011;9762;52.490;13.410;2023-08-06T12:44:39;8.77;;;7.87;;
19255;SDS011;9762;52.490;13.410;2023-08-06T12:47:05;17.97;;;10.67;;
19255;SDS011;9762;52.490;13.410;2023-08-06T12:49:31;27.13;;;12.77;;
19255;SDS011;9762;52.490;13.410;2023-08-06T12:51:58;8.63;;;7.77;;
19255;SDS011;9762;52.490;13.410;2023-08-06T12:54:25;5.80;;;5.40;;
19255;SDS011;9762;52.490;13.410;2023-08-06T12:56:51;7.37;;;6.87;;
19255;SDS011;9762;52.490;13.410;2023-08-06T12:59:17;8.27;;;7.00;;
19255;SDS011;9762;52.490;13.410;2023-08-06T13:01:43;5.33;;;5.03;;
19255;SDS011;9762;52.490;13.410;2023-08-06T13:04:09;6.00;;;5.60;;
19255;SDS011;9762;52.490;13.410;2023-08-06T13:06:35;4.17;;;3.97;;
19255;SDS011;9762;52.490;13.410;2023-08-06T13:09:05;6.30;;;5.90;;
19255;SDS011;9762;52.490;13.410;2023-08-06T13:11:32;6.27;;;5.87;;
19255;SDS011;9762;52.490;13.410;2023-08-06T13:14:04;7.83;;;5.40;;
19255;SDS011;9762;52.490;13.410;2023-08-06T13:16:32;6.90;;;6.40;;
19255;SDS011;9762;52.490;13.410;2023-08-06T13:18:58;6.80;;;6.17;;
19255;SDS011;9762;52.490;13.410;2023-08-06T13:21:24;7.30;;;6.50;;
19255;SDS011;9762;52.490;13.410;2023-08-06T13:23:56;6.87;;;6.37;;
19255;SDS011;9762;52.490;13.410;2023-08-06T13:26:21;10.30;;;8.93;;
19255;SDS011;9762;52.490;13.410;2023-08-06T13:28:47;9.27;;;8.57;;
19255;SDS011;9762;52.490;13.410;2023-08-06T13:31:14;11.17;;;10.27;;
19255;SDS011;9762;52.490;13.410;2023-08-06T13:33:39;13.27;;;12.17;;
19255;SDS011;9762;52.490;13.410;2023-08-06T13:36:05;13.97;;;12.83;;
19255;SDS011;9762;52.490;13.410;2023-08-06T13:38:31;12.90;;;12.00;;
19255;SDS011;9762;52.490;13.410;2023-08-06T13:40:56;8.70;;;7.93;;
19255;SDS011;9762;52.490;13.410;2023-08-06T13:43:24;8.60;;;7.93;;
19255;SDS011;9762;52.490;13.410;2023-08-06T13:45:49;6.63;;;6.13;;
19255;SDS011;9762;52.490;13.410;2023-08-06T13:48:15;6.20;;;5.73;;
19255;SDS011;9762;52.490;13.410;2023-08-06T13:50:40;5.47;;;5.07;;
19255;SDS011;9762;52.490;13.410;2023-08-06T13:53:06;5.13;;;4.93;;
19255;SDS011;9762;52.490;13.410;2023-08-06T13:55:32;5.87;;;5.57;;
19255;SDS011;9762;52.490;13.410;2023-08-06T13:57:57;7.07;;;5.70;;
19255;SDS011;9762;52.490;13.410;2023-08-06T14:00:23;6.20;;;5.80;;
19255;SDS011;9762;52.490;13.410;2023-08-06T14:02:48;6.50;;;6.10;;
19255;SDS011;9762;52.490;13.410;2023-08-06T14:05:14;5.87;;;5.47;;
19255;SDS011;9762;52.490;13.410;2023-08-06T14:07:40;7.20;;;6.60;;
19255;SDS011;9762;52.490;13.410;2023-08-06T14:10:05;5.70;;;5.40;;
19255;SDS011;9762;52.490;13.410;2023-08-06T14:12:32;6.83;;;6.33;;
19255;SDS011;9762;52.490;13.410;2023-08-06T14:14:57;6.27;;;5.77;;
19255;SDS011;9762;52.490;13.410;2023-08-06T14:17:24;6.80;;;6.30;;
19255;SDS011;9762;52.490;13.410;2023-08-06T14:19:49;7.70;;;7.20;;
19255;SDS011;9762;52.490;13.410;2023-08-06T14:22:15;7.50;;;6.80;;
19255;SDS011;9762;52.490;13.410;2023-08-06T14:24:40;7.73;;;7.13;;
19255;SDS011;9762;52.490;13.410;2023-08-06T14:27:06;6.17;;;5.67;;
19255;SDS011;9762;52.490;13.410;2023-08-06T14:29:32;8.30;;;7.60;;
19255;SDS011;9762;52.490;13.410;2023-08-06T14:31:58;7.07;;;6.47;;
19255;SDS011;9762;52.490;13.410;2023-08-06T14:34:23;8.03;;;7.50;;
19255;SDS011;9762;52.490;13.410;2023-08-06T14:36:49;10.60;;;9.70;;
19255;SDS011;9762;52.490;13.410;2023-08-06T14:39:15;10.50;;;9.70;;
19255;SDS011;9762;52.490;13.410;2023-08-06T14:41:40;8.73;;;8.07;;
19255;SDS011;9762;52.490;13.410;2023-08-06T14:44:06;6.73;;;6.23;;
19255;SDS011;9762;52.490;13.410;2023-08-06T14:46:32;5.17;;;4.70;;
19255;SDS011;9762;52.490;13.410;2023-08-06T14:48:58;4.97;;;4.57;;
19255;SDS011;9762;52.490;13.410;2023-08-06T14:51:24;4.97;;;4.67;;
19255;SDS011;9762;52.490;13.410;2023-08-06T14:53:49;4.70;;;4.40;;
19255;SDS011;9762;52.490;13.410;2023-08-06T14:56:15;4.97;;;4.57;;
19255;SDS011;9762;52.490;13.410;2023-08-06T14:58:41;4.50;;;4.20;;
19255;SDS011;9762;52.490;13.410;2023-08-06T15:01:07;4.33;;;4.07;;
19255;SDS011;9762;52.490;13.410;2023-08-06T15:03:33;5.23;;;4.83;;